createdAt,value
2023-02-16T00:02:10.175Z,13.55
2023-02-16T00:04:37.372Z,14.45
2023-02-16T00:07:05.443Z,16.80
2023-02-16T00:09:32.164Z,17.95
2023-02-16T00:11:59.119Z,19.85
2023-02-16T00:14:26.943Z,13.90
2023-02-16T00:16:54.009Z,17.20
2023-02-16T00:19:23.520Z,17.45
2023-02-16T00:21:52.570Z,19.90
2023-02-16T00:24:20.983Z,16.77
2023-02-16T00:26:48.487Z,14.63
2023-02-16T00:29:20.163Z,15.45
2023-02-16T00:31:47.563Z,20.65
2023-02-16T00:34:30.131Z,16.58
2023-02-16T00:36:58.470Z,16.30
2023-02-16T00:39:27.844Z,18.58
2023-02-16T00:41:57.471Z,18.35
2023-02-16T00:44:30.769Z,15.05
2023-02-16T00:47:00.458Z,15.05
2023-02-16T00:49:27.306Z,14.07
2023-02-16T00:51:54.168Z,15.73
2023-02-16T00:54:20.890Z,14.73
2023-02-16T00:56:49.038Z,17.05
2023-02-16T00:59:20.524Z,13.63
2023-02-16T01:01:48.406Z,15.57
2023-02-16T01:04:20.861Z,20.20
2023-02-16T01:06:47.669Z,17.65
2023-02-16T01:09:17.001Z,16.02
2023-02-16T01:11:43.716Z,17.42
2023-02-16T01:14:12.998Z,14.50
2023-02-16T01:16:41.393Z,12.95
2023-02-16T01:19:10.358Z,17.50
2023-02-16T01:21:37.075Z,17.15
2023-02-16T01:24:03.975Z,18.02
2023-02-16T01:26:34.822Z,16.25
2023-02-16T01:29:01.544Z,18.63
2023-02-16T01:31:29.733Z,14.63
2023-02-16T01:33:56.548Z,13.77
2023-02-16T01:36:27.207Z,17.42
2023-02-16T01:38:53.951Z,14.43
2023-02-16T01:41:29.460Z,14.32
2023-02-16T01:43:59.817Z,16.60
2023-02-16T01:46:36.593Z,17.70
2023-02-16T01:49:03.442Z,15.25
2023-02-16T01:51:35.478Z,16.55
2023-02-16T01:54:11.908Z,17.27
2023-02-16T01:56:45.218Z,15.45
2023-02-16T01:59:20.288Z,18.00
2023-02-16T02:01:55.041Z,14.05
2023-02-16T02:04:25.877Z,16.90
2023-02-16T02:06:52.602Z,17.63
2023-02-16T02:09:24.451Z,18.38
2023-02-16T02:11:59.146Z,16.00
2023-02-16T02:14:28.974Z,17.13
2023-02-16T02:17:05.159Z,18.20
2023-02-16T02:19:45.085Z,14.65
2023-02-16T02:22:34.083Z,16.02
2023-02-16T02:25:26.288Z,15.95
2023-02-16T02:28:01.898Z,18.75
2023-02-16T02:30:46.233Z,17.92
2023-02-16T02:33:34.788Z,14.35
2023-02-16T02:36:14.576Z,16.30
2023-02-16T02:38:53.322Z,15.05
2023-02-16T02:41:28.229Z,16.63
2023-02-16T02:44:00.073Z,16.88
2023-02-16T02:46:31.794Z,14.90
2023-02-16T02:48:58.582Z,13.25
2023-02-16T02:51:25.441Z,13.40
2023-02-16T02:53:57.749Z,14.98
2023-02-16T02:56:24.513Z,12.95
2023-02-16T02:58:57.640Z,15.90
2023-02-16T03:01:25.476Z,15.40
2023-02-16T03:03:55.715Z,13.68
2023-02-16T03:06:26.191Z,16.70
2023-02-16T03:08:57.426Z,17.27
2023-02-16T03:11:26.735Z,15.13
2023-02-16T03:14:00.580Z,17.27
2023-02-16T03:16:31.357Z,17.85
2023-02-16T03:18:58.968Z,15.55
2023-02-16T03:21:26.835Z,13.48
2023-02-16T03:23:54.877Z,16.00
2023-02-16T03:26:22.422Z,15.82
2023-02-16T03:28:50.941Z,13.30
2023-02-16T03:31:23.181Z,14.52
2023-02-16T03:33:51.693Z,15.75
2023-02-16T03:36:18.580Z,16.00
2023-02-16T03:38:45.332Z,12.88
2023-02-16T03:41:13.117Z,16.45
2023-02-16T03:43:39.792Z,13.70
2023-02-16T03:46:06.579Z,17.50
2023-02-16T03:48:34.669Z,15.60
2023-02-16T03:51:01.753Z,14.65
2023-02-16T03:53:28.564Z,14.88
2023-02-16T03:55:55.286Z,17.27
2023-02-16T03:58:23.605Z,12.07
2023-02-16T04:00:50.385Z,17.85
2023-02-16T04:03:17.767Z,14.43
2023-02-16T04:05:45.971Z,15.07
2023-02-16T04:08:12.717Z,17.50
2023-02-16T04:10:39.693Z,14.75
2023-02-16T04:13:06.817Z,17.73
2023-02-16T04:15:33.757Z,12.10
2023-02-16T04:18:00.540Z,18.85
2023-02-16T04:20:29.738Z,23.42
2023-02-16T04:22:58.003Z,15.75
2023-02-16T04:25:25.096Z,17.63
2023-02-16T04:27:52.113Z,17.77
2023-02-16T04:30:20.721Z,19.48
2023-02-16T04:32:47.805Z,14.73
2023-02-16T04:35:15.418Z,12.75
2023-02-16T04:37:42.277Z,14.88
2023-02-16T04:40:12.724Z,16.13
2023-02-16T04:42:39.560Z,14.23
2023-02-16T04:45:07.228Z,16.77
2023-02-16T04:47:33.936Z,12.63
2023-02-16T04:50:00.927Z,19.25
2023-02-16T04:52:27.610Z,14.82
2023-02-16T04:54:54.326Z,12.48
2023-02-16T04:57:22.487Z,13.27
2023-02-16T04:59:49.169Z,13.30
2023-02-16T05:02:15.894Z,16.10
2023-02-16T05:04:42.628Z,15.80
2023-02-16T05:07:09.352Z,15.70
2023-02-16T05:09:36.052Z,12.85
2023-02-16T05:12:02.919Z,15.52
2023-02-16T05:14:34.086Z,17.60
2023-02-16T05:17:00.781Z,19.98
2023-02-16T05:19:27.495Z,15.88
2023-02-16T05:21:54.194Z,13.25
2023-02-16T05:24:20.899Z,17.70
2023-02-16T05:26:47.622Z,11.40
2023-02-16T05:29:14.332Z,14.23
2023-02-16T05:31:42.491Z,14.00
2023-02-16T05:34:09.260Z,15.25
2023-02-16T05:36:36.114Z,9.20
2023-02-16T05:39:03.112Z,12.25
2023-02-16T05:41:29.861Z,11.10
2023-02-16T05:43:59.337Z,15.65
2023-02-16T05:46:27.268Z,12.57
2023-02-16T05:48:55.683Z,10.90
2023-02-16T05:51:22.418Z,14.82
2023-02-16T05:53:49.206Z,13.68
2023-02-16T05:56:17.741Z,12.32
2023-02-16T05:58:44.625Z,17.25
2023-02-16T06:01:11.392Z,10.55
2023-02-16T06:03:38.159Z,12.35
2023-02-16T06:06:07.142Z,13.10
2023-02-16T06:08:33.986Z,13.27
2023-02-16T06:11:01.051Z,10.90
2023-02-16T06:13:27.786Z,13.43
2023-02-16T06:15:56.139Z,14.60
2023-02-16T06:18:23.540Z,11.50
2023-02-16T06:20:50.621Z,13.20
2023-02-16T06:23:19.027Z,14.55
2023-02-16T06:25:49.539Z,14.23
2023-02-16T06:28:16.266Z,12.93
2023-02-16T06:30:42.998Z,14.25
2023-02-16T06:33:09.712Z,13.88
2023-02-16T06:35:36.383Z,14.55
2023-02-16T06:38:03.105Z,15.98
2023-02-16T06:40:31.116Z,13.95
2023-02-16T06:42:57.802Z,13.20
2023-02-16T06:45:24.473Z,14.27
2023-02-16T06:47:51.223Z,13.27
2023-02-16T06:50:18.197Z,16.20
2023-02-16T06:52:44.886Z,16.42
2023-02-16T06:55:11.604Z,17.92
2023-02-16T06:57:39.623Z,14.35
2023-02-16T07:00:07.498Z,13.07
2023-02-16T07:02:34.217Z,16.27
2023-02-16T07:05:01.024Z,17.70
2023-02-16T07:07:27.707Z,15.48
2023-02-16T07:09:54.424Z,16.75
2023-02-16T07:12:21.147Z,15.55
2023-02-16T07:14:49.316Z,13.23
2023-02-16T07:17:15.992Z,15.00
2023-02-16T07:19:42.703Z,16.42
2023-02-16T07:22:09.376Z,21.95
2023-02-16T07:24:36.138Z,19.27
2023-02-16T07:27:03.062Z,19.05
2023-02-16T07:29:29.780Z,15.93
2023-02-16T07:31:57.933Z,15.13
2023-02-16T07:34:24.810Z,18.45
2023-02-16T07:36:51.572Z,15.85
2023-02-16T07:39:18.292Z,15.23
2023-02-16T07:41:45.230Z,27.42
2023-02-16T07:44:12.037Z,19.52
2023-02-16T07:46:38.789Z,23.80
2023-02-16T07:49:06.860Z,25.73
2023-02-16T07:51:33.584Z,23.20
2023-02-16T07:54:00.868Z,15.05
2023-02-16T07:56:29.741Z,11.60
2023-02-16T07:58:58.186Z,14.50
2023-02-16T08:01:25.610Z,15.63
2023-02-16T08:03:53.106Z,12.65
2023-02-16T08:06:21.369Z,17.42
2023-02-16T08:08:48.305Z,16.48
2023-02-16T08:11:17.161Z,14.35
2023-02-16T08:13:44.095Z,11.10
2023-02-16T08:16:12.349Z,12.32
2023-02-16T08:18:39.639Z,16.25
2023-02-16T08:21:11.135Z,20.02
2023-02-16T08:23:39.398Z,16.85
2023-02-16T08:26:08.874Z,13.85
2023-02-16T08:28:35.624Z,16.98
2023-02-16T08:31:03.465Z,14.77
2023-02-16T08:33:30.215Z,18.45
2023-02-16T08:35:57.184Z,17.38
2023-02-16T08:38:23.961Z,17.65
2023-02-16T08:40:52.146Z,14.98
2023-02-16T08:43:18.907Z,16.35
2023-02-16T08:45:46.461Z,15.32
2023-02-16T08:48:13.265Z,15.82
2023-02-16T08:50:43.573Z,14.43
2023-02-16T08:53:10.394Z,15.70
2023-02-16T08:55:37.121Z,10.73
2023-02-16T08:58:05.279Z,15.02
2023-02-16T09:00:32.138Z,15.80
2023-02-16T09:02:59.483Z,17.85
2023-02-16T09:05:26.206Z,33.00
2023-02-16T09:07:53.087Z,20.48
2023-02-16T09:10:19.875Z,18.20
2023-02-16T09:12:46.619Z,15.77
2023-02-16T09:15:14.813Z,15.07
2023-02-16T09:17:41.527Z,13.98
2023-02-16T09:20:09.088Z,13.88
2023-02-16T09:22:35.882Z,14.05
2023-02-16T09:25:02.614Z,20.65
2023-02-16T09:27:29.452Z,18.42
2023-02-16T09:29:56.213Z,20.95
2023-02-16T09:32:28.106Z,19.23
2023-02-16T09:34:55.098Z,15.82
2023-02-16T09:37:21.987Z,13.75
2023-02-16T09:39:48.756Z,17.50
2023-02-16T09:42:26.751Z,16.75
2023-02-16T09:45:00.399Z,27.73
2023-02-16T09:47:30.657Z,17.60
2023-02-16T09:49:59.108Z,16.67
2023-02-16T09:52:34.399Z,20.60
2023-02-16T09:55:02.744Z,16.98
2023-02-16T09:57:41.511Z,12.57
2023-02-16T10:00:21.700Z,20.52
2023-02-16T10:02:53.637Z,14.82
2023-02-16T10:05:26.598Z,10.93
2023-02-16T10:08:07.771Z,15.32
2023-02-16T10:10:40.458Z,11.95
2023-02-16T10:13:15.428Z,20.58
2023-02-16T10:15:44.759Z,16.45
2023-02-16T10:18:21.126Z,15.43
2023-02-16T10:20:51.886Z,18.00
2023-02-16T10:23:33.601Z,12.02
2023-02-16T10:26:05.875Z,17.52
2023-02-16T10:28:39.644Z,19.40
2023-02-16T10:31:13.834Z,17.27
2023-02-16T10:33:44.972Z,17.90
2023-02-16T10:36:22.722Z,18.25
2023-02-16T10:38:54.189Z,15.35
2023-02-16T10:41:29.872Z,15.70
2023-02-16T10:44:01.581Z,19.05
2023-02-16T10:46:32.179Z,13.80
2023-02-16T10:49:00.820Z,14.15
2023-02-16T10:51:33.441Z,18.10
2023-02-16T10:54:03.406Z,19.38
2023-02-16T10:56:46.625Z,18.05
2023-02-16T10:59:16.334Z,18.05
2023-02-16T11:01:45.570Z,20.67
2023-02-16T11:04:36.075Z,17.75
2023-02-16T11:07:05.483Z,18.83
2023-02-16T11:09:32.613Z,19.27
2023-02-16T11:11:59.840Z,20.92
2023-02-16T11:14:29.466Z,13.68
2023-02-16T11:17:04.770Z,22.38
2023-02-16T11:19:31.824Z,20.40
2023-02-16T11:21:59.937Z,25.08
2023-02-16T11:24:28.721Z,22.42
2023-02-16T11:27:03.723Z,17.30
2023-02-16T11:29:30.906Z,19.02
2023-02-16T11:31:58.200Z,16.77
2023-02-16T11:34:32.907Z,15.10
2023-02-16T11:37:07.418Z,18.38
2023-02-16T11:39:38.130Z,24.85
2023-02-16T11:42:08.384Z,23.75
2023-02-16T11:44:37.396Z,20.27
2023-02-16T11:47:07.284Z,19.55
2023-02-16T11:49:36.370Z,18.77
2023-02-16T11:52:26.297Z,25.23
2023-02-16T11:54:54.963Z,21.63
2023-02-16T11:57:27.006Z,20.98
2023-02-16T11:59:54.353Z,19.63
2023-02-16T12:02:48.103Z,15.70
2023-02-16T12:05:24.304Z,21.17
2023-02-16T12:08:14.148Z,18.38
2023-02-16T12:10:49.816Z,15.85
2023-02-16T12:13:22.093Z,17.80
2023-02-16T12:15:59.353Z,13.57
2023-02-16T12:18:32.302Z,19.58
2023-02-16T12:21:05.740Z,16.50
2023-02-16T12:23:39.159Z,6.72
2023-02-16T12:26:29.303Z,15.50
2023-02-16T12:29:03.057Z,16.95
2023-02-16T12:31:49.569Z,19.33
2023-02-16T12:34:25.986Z,17.98
2023-02-16T12:37:01.145Z,17.67
2023-02-16T12:39:36.709Z,20.08
2023-02-16T12:42:27.602Z,11.77
2023-02-16T12:44:56.903Z,18.35
2023-02-16T12:47:28.812Z,21.80
2023-02-16T12:49:59.638Z,13.05
2023-02-16T12:52:35.260Z,18.02
2023-02-16T12:55:16.953Z,15.13
2023-02-16T12:57:51.943Z,16.23
2023-02-16T13:00:23.596Z,15.00
2023-02-16T13:02:55.161Z,12.32
2023-02-16T13:05:25.389Z,16.05
2023-02-16T13:08:01.423Z,12.23
2023-02-16T13:10:36.153Z,13.45
2023-02-16T13:13:05.840Z,21.70
2023-02-16T13:15:35.897Z,16.42
2023-02-16T13:18:07.313Z,13.88
2023-02-16T13:20:34.306Z,10.27
2023-02-16T13:23:37.566Z,14.43
2023-02-16T13:26:39.367Z,16.27
2023-02-16T13:29:36.201Z,15.10
2023-02-16T13:32:16.261Z,15.75
2023-02-16T13:35:23.198Z,16.70
2023-02-16T13:38:01.463Z,16.23
2023-02-16T13:40:45.358Z,14.20
2023-02-16T13:43:21.560Z,17.38
2023-02-16T13:45:51.363Z,13.45
2023-02-16T13:48:24.482Z,12.60
2023-02-16T13:50:57.685Z,11.52
2023-02-16T13:53:25.018Z,12.30
2023-02-16T13:56:19.700Z,13.23
2023-02-16T14:01:34.880Z,9.82
2023-02-16T14:04:05.032Z,7.95
2023-02-16T14:06:34.732Z,10.23
2023-02-16T14:09:44.381Z,10.82
2023-02-16T14:12:17.008Z,13.38
2023-02-16T14:14:56.071Z,10.20
2023-02-16T14:17:27.240Z,10.82
2023-02-16T14:19:57.847Z,12.13
2023-02-16T14:22:39.498Z,9.73
2023-02-16T14:25:30.068Z,11.05
2023-02-16T14:27:59.093Z,11.00
2023-02-16T14:30:31.529Z,10.60
2023-02-16T14:33:03.484Z,7.60
2023-02-16T14:35:33.152Z,11.02
2023-02-16T14:38:02.123Z,11.75
2023-02-16T14:40:47.401Z,9.35
2023-02-16T14:43:28.302Z,8.30
2023-02-16T14:46:18.372Z,7.35
2023-02-16T14:49:18.919Z,9.75
2023-02-16T14:52:00.156Z,8.00
2023-02-16T14:54:50.071Z,10.70
2023-02-16T14:57:20.854Z,9.50
2023-02-16T14:59:54.295Z,9.48
2023-02-16T15:02:32.386Z,8.90
2023-02-16T15:05:13.789Z,10.98
2023-02-16T15:07:40.534Z,8.63
2023-02-16T15:10:08.224Z,10.13
2023-02-16T15:12:38.270Z,11.88
2023-02-16T15:15:07.590Z,10.85
2023-02-16T15:17:37.780Z,13.30
2023-02-16T15:20:09.968Z,8.70
2023-02-16T15:22:37.616Z,8.90
2023-02-16T15:25:16.281Z,7.80
2023-02-16T15:27:52.732Z,7.22
2023-02-16T15:30:28.219Z,7.00
2023-02-16T15:32:58.052Z,7.78
2023-02-16T15:35:28.477Z,8.85
2023-02-16T15:38:05.097Z,9.85
2023-02-16T15:40:32.097Z,14.13
2023-02-16T15:43:18.115Z,10.82
2023-02-16T15:45:49.438Z,10.60
2023-02-16T15:48:24.202Z,7.93
2023-02-16T15:50:53.723Z,7.00
2023-02-16T15:53:33.713Z,8.48
2023-02-16T15:56:03.781Z,9.13
2023-02-16T15:58:32.865Z,6.93
2023-02-16T16:00:59.881Z,12.70
2023-02-16T16:03:28.045Z,8.77
2023-02-16T16:06:00.044Z,5.45
2023-02-16T16:08:28.453Z,8.25
2023-02-16T16:10:56.092Z,8.98
2023-02-16T16:13:25.472Z,6.95
2023-02-16T16:15:54.147Z,10.77
2023-02-16T16:18:38.538Z,5.75
2023-02-16T16:23:38.200Z,7.22
2023-02-16T16:26:17.053Z,6.10
2023-02-16T16:28:43.788Z,6.80
2023-02-16T16:31:12.407Z,7.68
2023-02-16T16:33:58.639Z,5.40
2023-02-16T16:36:31.024Z,9.77
2023-02-16T16:39:10.556Z,6.57
2023-02-16T16:41:37.849Z,7.57
2023-02-16T16:44:04.813Z,7.60
2023-02-16T16:46:32.514Z,10.00
2023-02-16T16:49:02.358Z,15.10
2023-02-16T16:51:39.241Z,7.28
2023-02-16T16:54:06.861Z,7.22
2023-02-16T16:56:37.063Z,16.88
2023-02-16T16:59:04.247Z,5.53
2023-02-16T17:01:31.397Z,6.45
2023-02-16T17:04:00.011Z,8.77
2023-02-16T17:06:27.415Z,5.07
2023-02-16T17:08:54.159Z,6.35
2023-02-16T17:11:25.256Z,12.73
2023-02-16T17:13:52.918Z,6.68
2023-02-16T17:16:23.417Z,4.72
2023-02-16T17:18:50.146Z,10.30
2023-02-16T17:21:18.558Z,7.28
2023-02-16T17:23:52.799Z,6.43
2023-02-16T17:26:20.784Z,5.03
2023-02-16T17:28:47.741Z,6.40
2023-02-16T17:31:15.249Z,5.93
2023-02-16T17:33:42.647Z,11.07
2023-02-16T17:36:14.918Z,9.07
2023-02-16T17:38:43.324Z,6.22
2023-02-16T17:41:18.929Z,8.90
2023-02-16T17:43:46.243Z,11.32
2023-02-16T17:46:13.668Z,7.82
2023-02-16T17:48:40.922Z,6.68
2023-02-16T17:51:14.179Z,9.30
2023-02-16T17:53:41.277Z,8.47
2023-02-16T17:56:12.199Z,7.45
2023-02-16T17:58:39.202Z,10.18
2023-02-16T18:01:06.473Z,6.35
2023-02-16T18:03:33.273Z,9.88
2023-02-16T18:06:00.801Z,7.10
2023-02-16T18:08:27.714Z,4.88
2023-02-16T18:10:55.650Z,10.23
2023-02-16T18:13:23.688Z,6.07
2023-02-16T18:15:50.459Z,6.90
2023-02-16T18:18:18.111Z,7.85
2023-02-16T18:20:45.709Z,6.35
2023-02-16T18:23:12.829Z,11.05
2023-02-16T18:25:39.584Z,7.25
2023-02-16T18:28:07.378Z,6.90
2023-02-16T18:30:35.842Z,8.88
2023-02-16T18:33:02.649Z,6.38
2023-02-16T18:35:31.652Z,5.13
2023-02-16T18:38:00.647Z,8.80
2023-02-16T18:40:28.140Z,7.38
2023-02-16T18:42:57.784Z,6.82
2023-02-16T18:45:25.256Z,7.38
2023-02-16T18:47:55.153Z,7.38
2023-02-16T18:50:22.156Z,5.60
2023-02-16T18:52:48.980Z,4.90
2023-02-16T18:55:17.573Z,6.57
2023-02-16T18:57:46.617Z,7.30
2023-02-16T19:00:15.518Z,6.75
2023-02-16T19:02:43.089Z,5.95
2023-02-16T19:05:13.441Z,5.75
2023-02-16T19:07:42.135Z,7.18
2023-02-16T19:10:09.668Z,9.35
2023-02-16T19:12:36.752Z,6.70
2023-02-16T19:15:04.070Z,15.48
2023-02-16T19:17:31.040Z,11.48
2023-02-16T19:19:57.933Z,8.48
2023-02-16T19:22:26.151Z,12.80
2023-02-16T19:24:53.229Z,14.32
2023-02-16T19:27:20.048Z,13.75
2023-02-16T19:29:46.806Z,17.58
2023-02-16T19:32:13.632Z,10.82
2023-02-16T19:34:40.569Z,7.95
2023-02-16T19:37:07.550Z,9.15
2023-02-16T19:39:35.672Z,10.07
2023-02-16T19:42:02.522Z,8.27
2023-02-16T19:44:29.337Z,9.35
2023-02-16T19:46:56.051Z,9.48
2023-02-16T19:49:23.847Z,8.88
2023-02-16T19:51:50.632Z,8.18
2023-02-16T19:54:17.499Z,9.35
2023-02-16T19:56:45.700Z,12.38
2023-02-16T19:59:12.530Z,9.65
2023-02-16T20:01:39.970Z,10.02
2023-02-16T20:04:08.015Z,8.60
2023-02-16T20:06:36.268Z,12.75
2023-02-16T20:09:03.525Z,8.73
2023-02-16T20:11:30.696Z,9.07
2023-02-16T20:13:59.081Z,13.85
2023-02-16T20:16:26.789Z,16.10
2023-02-16T20:18:54.301Z,11.27
2023-02-16T20:21:23.141Z,14.70
2023-02-16T20:23:57.137Z,10.20
2023-02-16T20:26:26.047Z,15.48
2023-02-16T20:28:53.026Z,12.30
2023-02-16T20:31:23.382Z,14.10
2023-02-16T20:33:50.734Z,11.68
2023-02-16T20:36:17.686Z,13.05
2023-02-16T20:38:44.683Z,9.27
2023-02-16T20:41:11.545Z,11.52
2023-02-16T20:43:38.693Z,12.77
2023-02-16T20:46:08.510Z,14.25
2023-02-16T20:48:36.631Z,12.32
2023-02-16T20:51:05.878Z,12.20
2023-02-16T20:53:33.143Z,13.93
2023-02-16T20:56:00.727Z,13.05
2023-02-16T20:58:27.484Z,17.25
2023-02-16T21:00:54.219Z,13.52
2023-02-16T21:03:21.165Z,12.57
2023-02-16T21:05:49.226Z,13.93
2023-02-16T21:08:15.935Z,15.45
2023-02-16T21:10:42.988Z,13.45
2023-02-16T21:13:09.707Z,13.93
2023-02-16T21:15:36.490Z,15.98
2023-02-16T21:18:03.249Z,13.65
2023-02-16T21:20:30.057Z,14.48
2023-02-16T21:22:58.118Z,12.65
2023-02-16T21:25:24.886Z,14.63
2023-02-16T21:27:51.700Z,16.65
2023-02-16T21:30:18.957Z,13.52
2023-02-16T21:32:45.716Z,13.20
2023-02-16T21:35:12.675Z,13.18
2023-02-16T21:37:39.417Z,13.35
2023-02-16T21:40:12.048Z,13.20
2023-02-16T21:42:38.785Z,13.18
2023-02-16T21:45:06.110Z,13.10
2023-02-16T21:47:32.841Z,12.57
2023-02-16T21:50:00.142Z,14.93
2023-02-16T21:52:27.047Z,11.43
2023-02-16T21:54:53.777Z,21.33
2023-02-16T21:57:21.866Z,12.77
2023-02-16T21:59:48.608Z,14.57
2023-02-16T22:02:15.303Z,15.40
2023-02-16T22:04:42.019Z,13.15
2023-02-16T22:07:08.733Z,12.70
2023-02-16T22:09:35.424Z,12.98
2023-02-16T22:12:02.136Z,17.92
2023-02-16T22:14:30.223Z,12.20
2023-02-16T22:16:57.030Z,12.95
2023-02-16T22:19:23.777Z,16.98
2023-02-16T22:21:50.484Z,14.02
2023-02-16T22:24:18.548Z,15.57
2023-02-16T22:26:46.273Z,14.00
2023-02-16T22:29:13.659Z,14.43
2023-02-16T22:31:44.993Z,15.95
2023-02-16T22:34:13.635Z,15.23
2023-02-16T22:36:41.104Z,13.73
2023-02-16T22:39:08.683Z,12.48
2023-02-16T22:41:35.449Z,17.23
2023-02-16T22:44:02.291Z,12.52
2023-02-16T22:46:29.856Z,11.77
2023-02-16T22:48:58.903Z,15.82
2023-02-16T22:51:26.843Z,15.40
2023-02-16T22:53:53.772Z,14.13
2023-02-16T22:56:20.663Z,11.90
2023-02-16T22:58:48.258Z,12.32
2023-02-16T23:01:16.983Z,15.68
2023-02-16T23:03:46.339Z,14.95
2023-02-16T23:06:16.003Z,14.48
2023-02-16T23:08:43.564Z,12.20
2023-02-16T23:11:10.561Z,12.90
2023-02-16T23:13:37.444Z,13.88
2023-02-16T23:16:06.474Z,14.88
2023-02-16T23:18:33.467Z,14.18
2023-02-16T23:21:05.461Z,13.50
2023-02-16T23:23:33.537Z,17.58
2023-02-16T23:26:00.445Z,13.82
2023-02-16T23:28:27.354Z,13.68
2023-02-16T23:30:56.637Z,10.63
2023-02-16T23:33:23.927Z,16.17
2023-02-16T23:35:50.870Z,14.90
2023-02-16T23:38:17.840Z,20.33
2023-02-16T23:40:46.007Z,14.23
2023-02-16T23:43:12.849Z,14.68
2023-02-16T23:45:39.572Z,15.38
2023-02-16T23:48:06.403Z,12.10
2023-02-16T23:50:33.280Z,13.45
2023-02-16T23:53:00.022Z,13.90
2023-02-16T23:55:26.753Z,14.25
2023-02-16T23:57:54.828Z,11.95
